Time;durP1;ratioP1;P1;durP2;ratioP2;P2;SDS_P1;SDS_P2;PMS_P1;PMS_P2;Temp;Humidity;BMP_temperature;BMP_pressure;BME280_temperature;BME280_humidity;BME280_pressure;Samples;Min_cycle;Max_cycle;Signal;HPM_P1;HPM_P2
2021/09/02 00:01:32;;;;;;;23.20;19.50;;;16.10;79.50;;;;;;5053631;28;20477;-75
2021/09/02 00:03:58;;;;;;;25.17;21.10;;;16.00;79.50;;;;;;5053682;28;20448;-75
2021/09/02 00:06:25;;;;;;;24.93;20.80;;;16.00;79.50;;;;;;5053345;28;20449;-75
2021/09/02 00:08:52;;;;;;;25.13;22.00;;;15.90;79.30;;;;;;5053612;28;20470;-75
2021/09/02 00:11:20;;;;;;;23.57;21.07;;;15.90;79.50;;;;;;5053103;28;20474;-75
2021/09/02 00:13:46;;;;;;;22.57;18.77;;;15.90;79.50;;;;;;5053553;28;20452;-75
2021/09/02 00:16:13;;;;;;;22.87;20.40;;;15.90;79.50;;;;;;5053466;28;20445;-75
2021/09/02 00:18:42;;;;;;;25.70;20.83;;;15.80;79.50;;;;;;5053461;28;20456;-75
2021/09/02 00:21:08;;;;;;;23.17;20.27;;;15.80;79.40;;;;;;5053043;28;20472;-75
2021/09/02 00:23:35;;;;;;;22.70;19.60;;;15.80;79.30;;;;;;5053414;28;20449;-75
2021/09/02 00:26:02;;;;;;;26.50;20.87;;;15.80;80.00;;;;;;5053211;28;20449;-75
2021/09/02 00:28:28;;;;;;;22.63;19.70;;;15.80;79.20;;;;;;5052911;28;20480;-75
2021/09/02 00:30:55;;;;;;;24.73;19.90;;;15.70;79.20;;;;;;5053184;28;20446;-75
2021/09/02 00:33:22;;;;;;;22.37;19.13;;;15.70;79.10;;;;;;5053296;28;20445;-76
2021/09/02 00:35:50;;;;;;;21.00;18.77;;;15.70;79.30;;;;;;5053354;28;20446;-75
2021/09/02 00:38:16;;;;;;;23.43;20.20;;;15.60;79.40;;;;;;5052913;28;20449;-75
2021/09/02 00:40:43;;;;;;;21.77;18.63;;;15.60;79.40;;;;;;5054568;28;20446;-75
2021/09/02 00:43:10;;;;;;;21.67;19.27;;;15.60;79.30;;;;;;5056999;28;20441;-75
2021/09/02 00:45:37;;;;;;;21.23;18.27;;;15.60;79.40;;;;;;5057255;28;20441;-75
2021/09/02 00:48:04;;;;;;;22.87;19.40;;;15.50;79.40;;;;;;5056827;28;20994;-75
2021/09/02 00:50:31;;;;;;;21.27;18.77;;;15.50;79.30;;;;;;5056894;28;20449;-75
2021/09/02 00:52:59;;;;;;;19.83;17.50;;;15.40;79.30;;;;;;5057071;28;20495;-75
2021/09/02 00:55:26;;;;;;;21.50;18.53;;;15.40;79.20;;;;;;5056792;28;20935;-75
2021/09/02 00:57:53;;;;;;;19.57;17.10;;;15.40;79.10;;;;;;5057094;28;20437;-75
2021/09/02 01:00:20;;;;;;;19.27;17.17;;;15.40;79.20;;;;;;5056686;28;20936;-75
2021/09/02 01:02:48;;;;;;;21.10;17.87;;;15.40;79.20;;;;;;5056876;28;20469;-75
2021/09/02 01:05:17;;;;;;;19.47;17.37;;;15.30;79.10;;;;;;5056866;28;20456;-75
2021/09/02 01:07:44;;;;;;;18.07;16.17;;;15.30;79.10;;;;;;5056773;28;20441;-75
2021/09/02 01:10:13;;;;;;;19.50;17.27;;;15.30;79.00;;;;;;5056715;28;20438;-75
2021/09/02 01:12:41;;;;;;;16.83;15.03;;;15.30;79.30;;;;;;5056794;28;20464;-75
2021/09/02 01:15:10;;;;;;;22.30;16.90;;;15.20;79.40;;;;;;5056743;28;20811;-75
2021/09/02 01:17:38;;;;;;;20.33;17.20;;;15.20;79.30;;;;;;5056702;28;20445;-75
2021/09/02 01:20:08;;;;;;;20.87;16.93;;;15.20;79.30;;;;;;5056668;28;20449;-75
2021/09/02 01:22:34;;;;;;;20.53;17.57;;;15.10;79.30;;;;;;5056552;28;20469;-75
2021/09/02 01:25:06;;;;;;;21.70;18.20;;;15.20;79.40;;;;;;5056271;28;20947;-75
2021/09/02 01:27:33;;;;;;;20.30;16.17;;;15.10;79.10;;;;;;5056557;28;20433;-75
2021/09/02 01:30:01;;;;;;;18.40;16.40;;;15.10;79.50;;;;;;5056368;28;20487;-75
2021/09/02 01:32:30;;;;;;;16.83;15.03;;;15.10;79.40;;;;;;5056325;28;20461;-75
2021/09/02 01:34:58;;;;;;;18.90;16.00;;;15.00;79.50;;;;;;5056346;28;20450;-75
2021/09/02 01:37:26;;;;;;;17.80;15.50;;;15.00;79.40;;;;;;5056350;28;20495;-75
2021/09/02 01:39:54;;;;;;;19.70;17.33;;;15.00;79.30;;;;;;5055969;28;20849;-75
2021/09/02 01:42:22;;;;;;;19.70;17.60;;;15.00;79.30;;;;;;5056982;28;20476;-75
2021/09/02 01:44:48;;;;;;;19.63;17.53;;;14.90;79.30;;;;;;5056235;28;20448;-75
2021/09/02 01:47:23;;;;;;;22.30;18.63;;;14.90;79.60;;;;;;5056141;28;20445;-75
2021/09/02 01:49:50;;;;;;;23.10;18.63;;;14.90;79.90;;;;;;5055711;28;20845;-75
2021/09/02 01:52:18;;;;;;;22.30;17.60;;;14.90;80.40;;;;;;5054266;28;20971;-75
2021/09/02 01:54:45;;;;;;;23.90;18.40;;;14.90;81.00;;;;;;5056028;28;20453;-75
2021/09/02 01:57:12;;;;;;;25.57;19.93;;;14.90;81.50;;;;;;5055991;28;20438;-75
2021/09/02 01:59:40;;;;;;;25.17;19.40;;;15.00;82.10;;;;;;5055895;28;20442;-75
2021/09/02 02:02:07;;;;;;;23.60;20.53;;;15.00;82.40;;;;;;5055488;28;20999;-75
2021/09/02 02:04:34;;;;;;;27.77;21.40;;;14.90;82.60;;;;;;5055797;28;20452;-75
2021/09/02 02:07:01;;;;;;;22.30;19.33;;;15.00;83.00;;;;;;5055784;28;20449;-75
2021/09/02 02:09:28;;;;;;;19.77;17.60;;;15.00;83.20;;;;;;5055713;28;20504;-75
2021/09/02 02:11:54;;;;;;;22.70;18.73;;;15.00;83.50;;;;;;5055233;28;20921;-75
2021/09/02 02:14:21;;;;;;;22.27;18.60;;;15.00;83.90;;;;;;5055627;28;20453;-75
2021/09/02 02:16:49;;;;;;;21.27;18.97;;;15.00;84.20;;;;;;5055305;28;20818;-75
2021/09/02 02:19:16;;;;;;;22.80;18.30;;;15.00;84.50;;;;;;5055550;28;20441;-75
2021/09/02 02:21:43;;;;;;;22.40;18.10;;;15.00;84.80;;;;;;5055460;28;20461;-75
2021/09/02 02:24:10;;;;;;;20.77;16.97;;;15.00;85.20;;;;;;5055398;28;20450;-75
2021/09/02 02:26:36;;;;;;;17.33;14.87;;;15.00;85.60;;;;;;5056188;28;20473;-75
2021/09/02 02:29:04;;;;;;;16.83;15.03;;;15.00;85.90;;;;;;5055270;28;20473;-75
2021/09/02 02:31:30;;;;;;;16.90;14.60;;;15.00;85.70;;;;;;5055231;28;20465;-75
2021/09/02 02:33:58;;;;;;;16.80;13.87;;;15.00;85.60;;;;;;5055238;28;20453;-75
2021/09/02 02:36:25;;;;;;;17.87;13.23;;;15.00;85.90;;;;;;5056110;28;20469;-75
2021/09/02 02:38:52;;;;;;;18.03;15.93;;;15.10;87.10;;;;;;5055188;28;20815;-75
2021/09/02 02:41:19;;;;;;;20.40;16.17;;;15.10;86.40;;;;;;5055044;28;20879;-75
2021/09/02 02:43:45;;;;;;;21.53;17.50;;;15.10;86.70;;;;;;5055088;28;20457;-75
2021/09/02 02:46:12;;;;;;;23.20;18.93;;;15.10;86.90;;;;;;5055013;28;20821;-75
2021/09/02 02:48:39;;;;;;;20.93;17.17;;;15.10;87.20;;;;;;5054878;28;20477;-75
2021/09/02 02:51:07;;;;;;;21.60;18.13;;;15.10;87.30;;;;;;5054871;28;20461;-75
2021/09/02 02:53:34;;;;;;;20.63;18.40;;;15.10;87.50;;;;;;5054649;28;20430;-75
2021/09/02 02:56:01;;;;;;;25.67;19.40;;;15.10;87.70;;;;;;5054547;28;20476;-75
2021/09/02 02:58:27;;;;;;;29.40;22.80;;;15.20;88.10;;;;;;5054828;28;20444;-75
2021/09/02 03:00:54;;;;;;;26.70;21.13;;;15.20;88.30;;;;;;5054667;28;20445;-75
2021/09/02 03:03:21;;;;;;;27.90;22.47;;;15.20;88.20;;;;;;5054264;28;20445;-75
2021/09/02 03:05:47;;;;;;;27.77;23.20;;;15.20;88.20;;;;;;5054645;28;20442;-75
2021/09/02 03:08:15;;;;;;;28.23;22.80;;;15.20;88.30;;;;;;5054550;28;20446;-75
2021/09/02 03:10:42;;;;;;;33.13;25.43;;;15.20;88.40;;;;;;5054219;28;20461;-73
2021/09/02 03:13:09;;;;;;;31.80;23.97;;;15.20;88.20;;;;;;5054489;28;20449;-75
2021/09/02 03:15:36;;;;;;;32.57;24.80;;;15.20;88.10;;;;;;5054506;28;20468;-75
2021/09/02 03:18:03;;;;;;;27.80;23.47;;;15.20;87.80;;;;;;5054608;28;20457;-75
2021/09/02 03:20:29;;;;;;;32.50;24.87;;;15.20;87.50;;;;;;5054342;28;20438;-75
2021/09/02 03:22:56;;;;;;;26.00;21.90;;;15.20;87.00;;;;;;5054304;28;20465;-75
2021/09/02 03:25:24;;;;;;;26.33;21.70;;;15.20;86.60;;;;;;5054257;28;20450;-75
2021/09/02 03:27:51;;;;;;;30.13;23.20;;;15.20;86.10;;;;;;5053958;28;20445;-75
2021/09/02 03:30:18;;;;;;;28.20;22.87;;;15.20;85.80;;;;;;5054066;28;20494;-75
2021/09/02 03:32:44;;;;;;;26.50;21.97;;;15.10;85.50;;;;;;5053835;28;20473;-75
2021/09/02 03:35:11;;;;;;;30.63;23.70;;;15.10;85.30;;;;;;5054092;28;20472;-75
2021/09/02 03:37:38;;;;;;;28.10;22.60;;;15.10;85.20;;;;;;5053814;28;20943;-75
2021/09/02 03:40:06;;;;;;;29.53;24.07;;;15.10;84.80;;;;;;5053655;28;20904;-75
2021/09/02 03:42:34;;;;;;;29.07;22.50;;;15.10;84.60;;;;;;5053880;28;20470;-75
2021/09/02 03:45:01;;;;;;;31.80;24.30;;;15.00;84.50;;;;;;5053927;28;20441;-75
2021/09/02 03:47:28;;;;;;;29.67;22.93;;;15.00;84.50;;;;;;5053561;28;20445;-75
2021/09/02 03:49:55;;;;;;;29.00;24.40;;;15.00;84.40;;;;;;5054288;28;20484;-75
2021/09/02 03:52:22;;;;;;;29.87;22.70;;;15.00;84.40;;;;;;5053895;28;20465;-75
2021/09/02 03:54:48;;;;;;;30.57;23.07;;;14.90;84.40;;;;;;5053761;28;20449;-75
2021/09/02 03:57:15;;;;;;;28.80;24.50;;;14.90;84.50;;;;;;5053792;28;20442;-75
2021/09/02 03:59:43;;;;;;;33.03;24.37;;;14.90;84.60;;;;;;5053745;28;20908;-75
2021/09/02 04:02:10;;;;;;;36.23;22.60;;;14.90;84.90;;;;;;5053315;28;20457;-75
2021/09/02 04:04:36;;;;;;;27.50;22.67;;;14.80;84.90;;;;;;5053715;28;20453;-75
2021/09/02 04:07:05;;;;;;;34.93;25.00;;;14.80;84.80;;;;;;5053273;28;20449;-75
2021/09/02 04:09:32;;;;;;;26.07;22.40;;;14.80;85.10;;;;;;5053536;28;20572;-75
2021/09/02 04:11:58;;;;;;;27.03;22.57;;;14.80;85.10;;;;;;5053116;28;20630;-75
2021/09/02 04:14:25;;;;;;;26.50;22.00;;;14.80;85.30;;;;;;5053147;28;20446;-75
2021/09/02 04:16:55;;;;;;;27.00;22.03;;;14.80;85.50;;;;;;5052975;28;20441;-75
2021/09/02 04:19:22;;;;;;;28.23;23.20;;;14.80;85.50;;;;;;5053720;28;20540;-75
2021/09/02 04:21:49;;;;;;;27.13;21.70;;;14.80;85.60;;;;;;5053287;28;20453;-75
2021/09/02 04:24:16;;;;;;;31.57;23.93;;;14.80;85.60;;;;;;5053040;28;20935;-75
2021/09/02 04:26:43;;;;;;;26.10;22.50;;;14.80;85.60;;;;;;5053136;28;20440;-75
2021/09/02 04:29:09;;;;;;;27.73;23.50;;;14.80;85.60;;;;;;5053172;28;20481;-75
2021/09/02 04:31:36;;;;;;;27.40;22.37;;;14.70;85.50;;;;;;5053155;28;20527;-75
2021/09/02 04:34:04;;;;;;;26.30;21.73;;;14.70;85.70;;;;;;5053277;28;20445;-75
2021/09/02 04:36:31;;;;;;;29.17;23.80;;;14.70;85.80;;;;;;5053241;28;20454;-75
2021/09/02 04:38:58;;;;;;;28.33;23.90;;;14.70;85.90;;;;;;5053170;28;20472;-75
2021/09/02 04:41:24;;;;;;;30.40;23.60;;;14.70;85.90;;;;;;5053130;28;20461;-75
2021/09/02 04:43:51;;;;;;;29.30;23.83;;;14.70;86.00;;;;;;5052879;28;20959;-75
2021/09/02 04:46:19;;;;;;;27.60;20.97;;;14.70;86.10;;;;;;5053145;28;20445;-75
2021/09/02 04:48:45;;;;;;;27.50;22.07;;;14.70;86.10;;;;;;5052688;28;20445;-76
2021/09/02 04:51:14;;;;;;;24.00;18.90;;;14.70;86.20;;;;;;5053065;28;20476;-75
2021/09/02 04:53:40;;;;;;;24.07;19.20;;;14.60;85.90;;;;;;5052793;28;20966;-75
2021/09/02 04:56:07;;;;;;;24.80;21.03;;;14.70;85.80;;;;;;5053084;28;20456;-75
2021/09/02 04:58:34;;;;;;;25.03;20.97;;;14.60;85.60;;;;;;5053024;28;20453;-75
2021/09/02 05:01:01;;;;;;;24.43;20.27;;;14.60;85.40;;;;;;5052896;28;20473;-75
2021/09/02 05:03:27;;;;;;;25.00;20.20;;;14.60;85.20;;;;;;5052997;28;20458;-75
2021/09/02 05:05:54;;;;;;;24.67;20.53;;;14.60;85.10;;;;;;5052695;28;20904;-75
2021/09/02 05:08:22;;;;;;;23.23;20.10;;;14.60;85.10;;;;;;5052966;28;20445;-75
2021/09/02 05:10:51;;;;;;;29.33;20.40;;;14.60;85.00;;;;;;5052663;28;20897;-75
2021/09/02 05:13:18;;;;;;;28.20;22.07;;;14.60;85.00;;;;;;5052874;28;20885;-75
2021/09/02 05:15:44;;;;;;;23.20;19.43;;;14.60;84.90;;;;;;5053197;28;20449;-76
2021/09/02 05:18:12;;;;;;;24.80;20.70;;;14.60;84.90;;;;;;5052686;28;20940;-76
2021/09/02 05:20:39;;;;;;;25.70;20.63;;;14.60;84.90;;;;;;5052504;28;20477;-76
2021/09/02 05:23:05;;;;;;;25.67;20.93;;;14.60;85.00;;;;;;5052820;28;20469;-75
2021/09/02 05:25:33;;;;;;;25.17;20.80;;;14.60;85.30;;;;;;5052852;28;20452;-75
2021/09/02 05:28:00;;;;;;;25.30;21.07;;;14.60;85.40;;;;;;5056092;28;20449;-75
2021/09/02 05:30:27;;;;;;;22.80;20.27;;;14.60;85.60;;;;;;5056475;28;20449;-75
2021/09/02 05:32:53;;;;;;;23.10;20.50;;;14.60;85.90;;;;;;5056414;28;20473;-75
2021/09/02 05:35:20;;;;;;;30.80;23.30;;;14.60;86.10;;;;;;5056428;28;20809;-75
2021/09/02 05:37:47;;;;;;;25.97;21.67;;;14.70;86.60;;;;;;5056328;28;20454;-75
2021/09/02 05:40:14;;;;;;;27.30;22.27;;;14.70;86.80;;;;;;5056234;28;20477;-77
2021/09/02 05:42:42;;;;;;;25.63;22.13;;;14.70;87.10;;;;;;5056139;28;20472;-76
2021/09/02 05:45:09;;;;;;;26.53;21.17;;;14.80;87.30;;;;;;5055880;28;20935;-76
2021/09/02 05:47:36;;;;;;;26.50;21.13;;;14.80;87.30;;;;;;5056182;28;20453;-75
2021/09/02 05:50:04;;;;;;;27.23;21.10;;;14.80;87.40;;;;;;5056153;28;20469;-77
2021/09/02 05:52:30;;;;;;;26.40;21.67;;;14.90;87.40;;;;;;5056573;28;20948;-76
2021/09/02 05:54:58;;;;;;;26.23;21.20;;;14.90;87.30;;;;;;5056051;28;20445;-75
2021/09/02 05:57:25;;;;;;;31.00;22.80;;;14.90;87.40;;;;;;5055969;28;20560;-75
2021/09/02 05:59:53;;;;;;;26.23;22.07;;;15.00;87.70;;;;;;5055841;28;20481;-75
2021/09/02 06:02:20;;;;;;;27.90;22.63;;;15.00;87.80;;;;;;5055474;28;20979;-75
2021/09/02 06:04:46;;;;;;;27.07;22.53;;;15.00;87.80;;;;;;5055897;28;20852;-75
2021/09/02 06:07:13;;;;;;;30.80;21.90;;;15.10;88.00;;;;;;5055496;28;20454;-75
2021/09/02 06:09:40;;;;;;;26.17;21.30;;;15.10;88.10;;;;;;5055761;28;20442;-75
2021/09/02 06:12:08;;;;;;;31.70;22.37;;;15.10;88.30;;;;;;5055293;28;20478;-75
2021/09/02 06:14:35;;;;;;;25.07;21.30;;;15.20;88.60;;;;;;5055368;28;20960;-75
2021/09/02 06:17:03;;;;;;;24.17;19.53;;;15.20;88.90;;;;;;5055588;28;20916;-75
2021/09/02 06:19:30;;;;;;;28.20;22.50;;;15.30;89.20;;;;;;5055488;28;20449;-75
2021/09/02 06:21:57;;;;;;;27.53;21.33;;;15.30;90.00;;;;;;5055425;28;20465;-75
2021/09/02 06:24:23;;;;;;;29.53;21.37;;;15.30;89.30;;;;;;5055252;28;20449;-75
2021/09/02 06:26:50;;;;;;;26.67;21.87;;;15.40;89.60;;;;;;5055452;28;20449;-75
2021/09/02 06:29:17;;;;;;;29.63;22.20;;;15.40;89.60;;;;;;5055098;28;20971;-75
2021/09/02 06:31:43;;;;;;;24.30;20.60;;;15.50;89.90;;;;;;5055304;28;20466;-75
2021/09/02 06:34:12;;;;;;;23.13;19.03;;;15.50;89.90;;;;;;5055340;28;20450;-75
2021/09/02 06:36:39;;;;;;;25.30;20.80;;;15.60;90.10;;;;;;5055250;28;20446;-75
2021/09/02 06:39:06;;;;;;;26.90;20.93;;;15.70;90.10;;;;;;5054092;28;20442;-75
2021/09/02 06:41:33;;;;;;;23.50;19.70;;;15.80;90.20;;;;;;5055085;28;20481;-75
2021/09/02 06:43:59;;;;;;;29.53;20.90;;;15.80;90.20;;;;;;5054805;28;20958;-76
2021/09/02 06:46:26;;;;;;;29.03;21.27;;;15.90;90.20;;;;;;5055077;28;20450;-75
2021/09/02 06:48:53;;;;;;;27.07;20.10;;;15.90;90.20;;;;;;5055047;28;20444;-75
2021/09/02 06:51:22;;;;;;;26.17;20.30;;;16.00;90.30;;;;;;5054906;28;20462;-75
2021/09/02 06:53:48;;;;;;;25.10;19.00;;;16.10;90.30;;;;;;5054661;28;20445;-75
2021/09/02 06:56:15;;;;;;;30.33;20.70;;;16.10;90.20;;;;;;5054861;28;20813;-75
2021/09/02 06:58:42;;;;;;;24.90;20.10;;;16.20;90.30;;;;;;5054583;28;20432;-76
2021/09/02 07:01:10;;;;;;;27.17;20.07;;;16.20;90.30;;;;;;5054676;28;20485;-76
2021/09/02 07:03:37;;;;;;;22.80;17.77;;;16.30;90.30;;;;;;5054736;28;20445;-76
2021/09/02 07:06:04;;;;;;;28.10;19.43;;;16.30;90.30;;;;;;5054313;28;21051;-76
2021/09/02 07:08:33;;;;;;;24.23;20.37;;;16.40;90.30;;;;;;5054642;28;20456;-76
2021/09/02 07:11:00;;;;;;;27.60;18.93;;;16.50;90.30;;;;;;5054248;28;20462;-75
2021/09/02 07:13:26;;;;;;;24.13;17.50;;;16.60;90.20;;;;;;5054534;28;20446;-75
2021/09/02 07:15:53;;;;;;;22.83;19.10;;;16.70;90.10;;;;;;5054515;28;20449;-75
2021/09/02 07:18:20;;;;;;;20.60;17.43;;;16.90;90.10;;;;;;5054473;28;20908;-75
2021/09/02 07:20:46;;;;;;;24.87;18.00;;;16.90;89.80;;;;;;5054263;28;20556;-75
2021/09/02 07:23:13;;;;;;;21.93;17.73;;;17.10;89.60;;;;;;5054349;28;20453;-75
2021/09/02 07:25:41;;;;;;;23.63;18.00;;;17.20;89.00;;;;;;5053982;28;20441;-76
2021/09/02 07:28:08;;;;;;;20.30;16.40;;;17.40;88.60;;;;;;5054270;28;20472;-76
2021/09/02 07:30:35;;;;;;;18.90;15.87;;;17.60;88.00;;;;;;5054040;28;20446;-75
2021/09/02 07:33:01;;;;;;;21.90;16.50;;;17.80;87.00;;;;;;5054117;28;20477;-76
2021/09/02 07:35:28;;;;;;;21.00;18.80;;;18.00;86.20;;;;;;5054125;28;20445;-76
2021/09/02 07:37:55;;;;;;;23.60;17.17;;;18.20;85.70;;;;;;5053797;28;20441;-75
2021/09/02 07:40:21;;;;;;;22.87;17.87;;;18.40;85.30;;;;;;5053989;28;20477;-76
2021/09/02 07:42:49;;;;;;;21.60;16.00;;;18.60;84.70;;;;;;5053598;28;20972;-76
2021/09/02 07:45:16;;;;;;;23.30;15.10;;;18.80;84.00;;;;;;5053978;28;20446;-76
2021/09/02 07:47:43;;;;;;;15.40;13.73;;;18.90;83.10;;;;;;5053648;28;20454;-76
2021/09/02 07:50:11;;;;;;;19.97;15.50;;;19.10;82.10;;;;;;5053859;28;20442;-76
2021/09/02 07:52:39;;;;;;;22.37;16.80;;;19.30;81.00;;;;;;5053813;28;20465;-71
2021/09/02 07:55:07;;;;;;;15.87;14.20;;;19.50;80.50;;;;;;5054458;28;20492;-71
2021/09/02 07:57:33;;;;;;;18.70;13.77;;;19.60;79.10;;;;;;5053432;28;20445;-71
2021/09/02 08:00:01;;;;;;;21.20;15.17;;;19.70;78.20;;;;;;5053640;28;20454;-71
2021/09/02 08:02:28;;;;;;;16.83;12.80;;;19.90;77.20;;;;;;5053574;28;20472;-71
2021/09/02 08:04:55;;;;;;;18.73;14.27;;;20.00;75.40;;;;;;5053721;28;20456;-71
2021/09/02 08:07:22;;;;;;;15.40;12.17;;;20.10;74.30;;;;;;5053554;28;20457;-71
2021/09/02 08:09:51;;;;;;;17.63;12.33;;;20.20;74.10;;;;;;5053838;28;20479;-71
2021/09/02 08:12:17;;;;;;;16.97;13.30;;;20.40;73.70;;;;;;5053245;28;21006;-71
2021/09/02 08:14:44;;;;;;;18.87;12.40;;;20.50;73.20;;;;;;5053703;28;20446;-72
2021/09/02 08:17:12;;;;;;;16.20;12.30;;;20.70;72.50;;;;;;5053771;28;20426;-71
2021/09/02 08:19:39;;;;;;;12.37;10.80;;;20.80;72.10;;;;;;5053534;28;20442;-71
2021/09/02 08:22:06;;;;;;;18.13;15.27;;;21.00;72.00;;;;;;5053420;28;20489;-71
2021/09/02 08:24:32;;;;;;;16.17;12.83;;;21.10;70.30;;;;;;5053421;28;20445;-71
2021/09/02 08:26:59;;;;;;;15.53;12.10;;;21.20;68.90;;;;;;5053548;28;20426;-71
2021/09/02 08:29:26;;;;;;;21.07;13.97;;;21.30;68.00;;;;;;5053148;28;20426;-71
2021/09/02 08:31:52;;;;;;;16.50;12.23;;;21.50;68.60;;;;;;5055985;28;20511;-72
2021/09/02 08:34:21;;;;;;;13.03;11.70;;;21.70;68.80;;;;;;5053065;28;20928;-71
2021/09/02 08:36:47;;;;;;;20.70;15.30;;;21.80;68.20;;;;;;5053374;28;20429;-72
2021/09/02 08:39:14;;;;;;;14.10;12.23;;;22.00;67.20;;;;;;5053166;28;20935;-72
2021/09/02 08:41:42;;;;;;;13.10;11.20;;;22.30;66.00;;;;;;5053142;28;20481;-72
2021/09/02 08:44:09;;;;;;;14.00;11.97;;;22.50;65.80;;;;;;5053372;28;20441;-72
2021/09/02 08:46:37;;;;;;;14.30;11.77;;;22.70;65.30;;;;;;5053262;28;20484;-71
2021/09/02 08:49:05;;;;;;;16.00;12.57;;;22.80;64.10;;;;;;5052947;28;20940;-72
2021/09/02 08:51:35;;;;;;;14.63;12.50;;;23.00;63.80;;;;;;5053137;28;20515;-72
2021/09/02 08:54:02;;;;;;;13.77;11.20;;;23.20;62.50;;;;;;5053269;28;20430;-72
2021/09/02 08:56:29;;;;;;;13.10;11.47;;;23.40;61.90;;;;;;5053959;28;20468;-71
2021/09/02 08:58:56;;;;;;;14.50;13.00;;;23.60;60.80;;;;;;5053208;28;20445;-71
2021/09/02 09:01:23;;;;;;;17.37;11.87;;;23.80;60.70;;;;;;5053565;28;21009;-71
2021/09/02 09:03:51;;;;;;;12.00;10.20;;;23.90;59.70;;;;;;5057096;28;20453;-71
2021/09/02 09:06:26;;;;;;;10.63;9.53;;;24.10;59.70;;;;;;5056751;28;20445;-71
2021/09/02 09:08:54;;;;;;;13.20;9.60;;;24.30;59.20;;;;;;5057055;28;20451;-71
2021/09/02 09:11:24;;;;;;;14.73;12.27;;;24.60;58.70;;;;;;5056715;28;20492;-72
2021/09/02 09:14:06;;;;;;;12.63;9.67;;;24.80;58.10;;;;;;5057005;28;20457;-71
2021/09/02 09:16:44;;;;;;;14.23;10.40;;;25.00;57.60;;;;;;5056894;28;20453;-72
2021/09/02 09:19:11;;;;;;;12.47;10.13;;;25.20;57.50;;;;;;5056850;28;20456;-72
2021/09/02 09:21:38;;;;;;;12.90;10.63;;;25.40;56.70;;;;;;5056619;28;20484;-72
2021/09/02 09:24:06;;;;;;;12.53;10.47;;;25.60;55.70;;;;;;5056799;28;20436;-72
2021/09/02 09:26:35;;;;;;;17.47;11.60;;;25.70;55.40;;;;;;5056577;28;20452;-72
2021/09/02 09:29:04;;;;;;;15.40;13.10;;;25.90;55.40;;;;;;5056508;28;20441;-71
2021/09/02 09:31:32;;;;;;;11.43;8.00;;;26.00;52.10;;;;;;5056536;28;20539;-72
2021/09/02 09:34:01;;;;;;;10.50;9.40;;;26.10;52.00;;;;;;5056281;28;20968;-72
2021/09/02 09:36:29;;;;;;;11.03;7.60;;;26.20;53.10;;;;;;5056283;28;20452;-72
2021/09/02 09:39:01;;;;;;;12.33;8.87;;;26.40;53.30;;;;;;5056514;28;20782;-72
2021/09/02 09:41:35;;;;;;;10.40;9.30;;;26.50;52.50;;;;;;5056235;28;20485;-72
2021/09/02 09:44:22;;;;;;;12.30;10.50;;;26.70;52.10;;;;;;5055985;28;20784;-72
2021/09/02 09:47:11;;;;;;;9.50;8.53;;;27.00;51.80;;;;;;5056222;28;20437;-72
2021/09/02 09:49:45;;;;;;;9.73;8.10;;;27.20;50.40;;;;;;5056233;28;20441;-72
2021/09/02 09:52:20;;;;;;;9.23;8.33;;;27.40;51.40;;;;;;5056040;28;20461;-72
2021/09/02 09:54:47;;;;;;;14.10;11.00;;;27.70;50.40;;;;;;5056094;28;20468;-72
2021/09/02 09:57:16;;;;;;;11.93;10.20;;;27.80;48.00;;;;;;5055739;28;20905;-72
2021/09/02 09:59:43;;;;;;;12.20;8.63;;;28.00;47.50;;;;;;5056046;28;20449;-72
2021/09/02 10:02:10;;;;;;;10.93;7.50;;;28.30;48.20;;;;;;5055804;28;20485;-72
2021/09/02 10:04:38;;;;;;;13.17;9.47;;;28.50;47.80;;;;;;5055596;28;20936;-72
2021/09/02 10:07:06;;;;;;;11.53;8.70;;;28.90;47.60;;;;;;5055847;28;20441;-72
2021/09/02 10:09:33;;;;;;;15.90;11.27;;;29.20;47.40;;;;;;5055787;28;20458;-72
2021/09/02 10:12:01;;;;;;;9.10;8.17;;;29.40;46.70;;;;;;5055295;28;20850;-72
2021/09/02 10:14:29;;;;;;;11.13;9.30;;;29.70;46.10;;;;;;5054640;28;20445;-72
2021/09/02 10:16:57;;;;;;;10.10;8.00;;;30.00;45.40;;;;;;5055689;28;20468;-72
2021/09/02 10:19:25;;;;;;;9.00;8.17;;;30.40;44.70;;;;;;5055652;28;20429;-72
2021/09/02 10:21:54;;;;;;;12.70;9.00;;;30.70;44.00;;;;;;5055436;28;20492;-72
2021/09/02 10:24:36;;;;;;;9.77;8.60;;;31.10;42.80;;;;;;5055556;28;20445;-72
2021/09/02 10:27:33;;;;;;;8.57;7.70;;;31.50;41.50;;;;;;5055569;28;20482;-72
2021/09/02 10:30:19;;;;;;;9.10;7.90;;;31.80;41.00;;;;;;5055433;28;20449;-72
2021/09/02 10:32:46;;;;;;;10.73;8.43;;;32.30;40.00;;;;;;5055447;28;20468;-72
2021/09/02 10:35:33;;;;;;;8.37;7.60;;;32.80;39.00;;;;;;5055500;28;20468;-72
2021/09/02 10:38:00;;;;;;;10.30;9.30;;;33.30;38.40;;;;;;5055197;28;20896;-73
2021/09/02 10:40:47;;;;;;;9.07;8.20;;;33.70;36.90;;;;;;5055473;28;20522;-72
2021/09/02 10:43:14;;;;;;;9.13;8.23;;;34.30;35.90;;;;;;5055282;28;20532;-72
2021/09/02 10:45:43;;;;;;;12.13;9.80;;;34.60;35.00;;;;;;5055300;28;20467;-72
2021/09/02 10:48:16;;;;;;;9.90;8.60;;;35.00;34.10;;;;;;5055199;28;20433;-72
2021/09/02 10:50:45;;;;;;;9.97;9.00;;;35.50;33.30;;;;;;5055136;28;20429;-72
2021/09/02 10:53:13;;;;;;;10.63;9.27;;;35.90;32.20;;;;;;5055078;28;20469;-72
2021/09/02 10:55:48;;;;;;;9.73;7.90;;;36.40;30.80;;;;;;5055084;28;20206;-72
2021/09/02 10:58:48;;;;;;;8.20;6.77;;;36.80;30.60;;;;;;5055123;28;20201;-72
2021/09/02 11:01:31;;;;;;;7.57;6.22;;;37.30;30.00;;;;;;5054896;28;20222;-73
2021/09/02 11:04:03;;;;;;;9.33;8.30;;;37.70;29.50;;;;;;5055019;28;20191;-72
2021/09/02 11:06:44;;;;;;;9.20;8.30;;;38.00;28.80;;;;;;5054892;28;20210;-72
2021/09/02 11:09:11;;;;;;;10.27;7.38;;;38.30;26.70;;;;;;5054653;28;20256;-72
2021/09/02 11:11:38;;;;;;;12.30;9.65;;;38.70;26.70;;;;;;5054432;28;20230;-72
2021/09/02 11:14:14;;;;;;;7.47;6.65;;;38.90;26.40;;;;;;5054746;28;20229;-72
2021/09/02 11:16:42;;;;;;;9.40;8.43;;;39.20;26.60;;;;;;5054723;28;20240;-72
2021/09/02 11:19:09;;;;;;;10.45;8.73;;;39.40;26.60;;;;;;5054393;28;20202;-73
2021/09/02 11:21:36;;;;;;;9.00;7.60;;;39.60;26.60;;;;;;5054617;28;20230;-73
2021/09/02 11:24:07;;;;;;;9.98;9.02;;;39.70;26.30;;;;;;5054332;28;20207;-73
2021/09/02 11:26:35;;;;;;;9.05;8.07;;;39.90;25.80;;;;;;5054480;28;20248;-73
2021/09/02 11:29:02;;;;;;;9.02;7.93;;;40.10;25.70;;;;;;5054440;28;20198;-73
2021/09/02 11:31:29;;;;;;;8.88;7.65;;;40.40;25.60;;;;;;5054365;28;20226;-73
2021/09/02 11:33:57;;;;;;;8.63;7.78;;;40.50;25.40;;;;;;5054320;28;20209;-73
2021/09/02 11:36:24;;;;;;;13.30;12.00;;;40.70;24.90;;;;;;5054440;28;20556;-72
2021/09/02 11:39:01;;;;;;;8.18;7.18;;;40.90;24.10;;;;;;5054564;28;20540;-72
2021/09/02 11:41:28;;;;;;;11.63;8.68;;;41.10;24.20;;;;;;5054050;28;20248;-73
2021/09/02 11:43:55;;;;;;;8.77;7.85;;;41.20;24.60;;;;;;5053923;28;20668;-72
2021/09/02 11:46:22;;;;;;;7.50;6.80;;;41.40;24.00;;;;;;5054149;28;20203;-73
2021/09/02 11:48:51;;;;;;;7.05;6.18;;;41.70;23.60;;;;;;5054214;28;20209;-73
2021/09/02 11:51:24;;;;;;;7.75;7.00;;;42.00;23.50;;;;;;5053709;28;20257;-73
2021/09/02 11:54:03;;;;;;;7.05;6.30;;;42.30;23.50;;;;;;5053762;28;20198;-73
2021/09/02 11:56:31;;;;;;;7.20;6.38;;;42.50;22.80;;;;;;5054076;28;20641;-73
2021/09/02 11:58:58;;;;;;;11.00;10.00;;;42.60;22.90;;;;;;5053619;28;20697;-73
2021/09/02 12:01:25;;;;;;;7.50;6.80;;;42.80;21.40;;;;;;5053821;28;20230;-73
2021/09/02 12:03:53;;;;;;;6.78;6.18;;;42.90;21.80;;;;;;5053343;28;20730;-73
2021/09/02 12:06:24;;;;;;;8.05;7.10;;;43.00;22.50;;;;;;5053726;28;20209;-73
2021/09/02 12:08:52;;;;;;;7.57;6.38;;;43.20;22.00;;;;;;5053717;28;20277;-74
2021/09/02 12:11:19;;;;;;;7.88;7.07;;;43.40;22.10;;;;;;5053251;28;20234;-73
2021/09/02 12:13:46;;;;;;;9.07;8.20;;;43.60;21.80;;;;;;5053226;28;20234;-73
2021/09/02 12:16:16;;;;;;;7.90;6.88;;;43.80;21.40;;;;;;5053558;28;20210;-73
2021/09/02 12:18:44;;;;;;;7.03;6.32;;;44.10;21.40;;;;;;5053510;28;20203;-73
2021/09/02 12:21:14;;;;;;;6.78;6.28;;;44.30;21.20;;;;;;5053352;28;20234;-73
2021/09/02 12:23:52;;;;;;;7.50;6.90;;;44.50;21.00;;;;;;5053428;28;20202;-73
2021/09/02 12:26:20;;;;;;;10.60;9.52;;;44.90;20.10;;;;;;5054331;28;20186;-73
2021/09/02 12:28:51;;;;;;;6.97;6.38;;;45.10;18.40;;;;;;5053211;28;20656;-73
2021/09/02 12:31:21;;;;;;;6.97;6.10;;;45.10;19.10;;;;;;5053272;28;20230;-73
2021/09/02 12:33:55;;;;;;;8.60;7.90;;;45.30;19.70;;;;;;5053345;28;20584;-73
2021/09/02 12:36:22;;;;;;;6.93;6.30;;;45.50;19.50;;;;;;5052685;28;20206;-73